sensor_id;sensor_type;location;lat;lon;timestamp;P1;durP1;ratioP1;P2;durP2;ratioP2
81242;SDS011;70716;50.074;14.496;2024-01-07T00:00:21;7.25;;;3.50;;
81242;SDS011;70716;50.074;14.496;2024-01-07T00:02:49;8.20;;;3.33;;
81242;SDS011;70716;50.074;14.496;2024-01-07T00:05:15;6.78;;;3.25;;
81242;SDS011;70716;50.074;14.496;2024-01-07T00:07:40;6.93;;;3.97;;
81242;SDS011;70716;50.074;14.496;2024-01-07T00:10:09;6.20;;;4.35;;
81242;SDS011;70716;50.074;14.496;2024-01-07T00:12:34;3.67;;;2.60;;
81242;SDS011;70716;50.074;14.496;2024-01-07T00:15:03;5.22;;;2.97;;
81242;SDS011;70716;50.074;14.496;2024-01-07T00:17:29;10.27;;;4.68;;
81242;SDS011;70716;50.074;14.496;2024-01-07T00:19:54;6.25;;;3.67;;
81242;SDS011;70716;50.074;14.496;2024-01-07T00:22:19;7.78;;;3.55;;
81242;SDS011;70716;50.074;14.496;2024-01-07T00:24:48;7.20;;;3.97;;
81242;SDS011;70716;50.074;14.496;2024-01-07T00:27:13;12.35;;;4.35;;
81242;SDS011;70716;50.074;14.496;2024-01-07T00:29:38;5.03;;;2.95;;
81242;SDS011;70716;50.074;14.496;2024-01-07T00:32:04;7.80;;;3.33;;
81242;SDS011;70716;50.074;14.496;2024-01-07T00:34:29;3.65;;;2.65;;
81242;SDS011;70716;50.074;14.496;2024-01-07T00:36:55;6.65;;;4.60;;
81242;SDS011;70716;50.074;14.496;2024-01-07T00:39:20;5.53;;;3.35;;
81242;SDS011;70716;50.074;14.496;2024-01-07T00:41:46;8.27;;;3.50;;
81242;SDS011;70716;50.074;14.496;2024-01-07T00:44:14;8.07;;;4.30;;
81242;SDS011;70716;50.074;14.496;2024-01-07T00:46:40;4.80;;;3.28;;
81242;SDS011;70716;50.074;14.496;2024-01-07T00:49:08;3.88;;;3.17;;
81242;SDS011;70716;50.074;14.496;2024-01-07T00:51:33;5.47;;;3.38;;
81242;SDS011;70716;50.074;14.496;2024-01-07T00:53:59;4.07;;;2.65;;
81242;SDS011;70716;50.074;14.496;2024-01-07T00:56:28;10.98;;;4.43;;
81242;SDS011;70716;50.074;14.496;2024-01-07T00:58:56;4.90;;;3.60;;
81242;SDS011;70716;50.074;14.496;2024-01-07T01:01:25;4.82;;;2.35;;
81242;SDS011;70716;50.074;14.496;2024-01-07T01:03:50;5.25;;;3.38;;
81242;SDS011;70716;50.074;14.496;2024-01-07T01:06:15;6.15;;;2.75;;
81242;SDS011;70716;50.074;14.496;2024-01-07T01:08:41;7.68;;;3.17;;
81242;SDS011;70716;50.074;14.496;2024-01-07T01:11:09;5.25;;;2.78;;
81242;SDS011;70716;50.074;14.496;2024-01-07T01:13:35;9.75;;;2.88;;
81242;SDS011;70716;50.074;14.496;2024-01-07T01:16:00;2.22;;;1.88;;
81242;SDS011;70716;50.074;14.496;2024-01-07T01:18:26;3.20;;;1.95;;
81242;SDS011;70716;50.074;14.496;2024-01-07T01:20:51;4.45;;;2.67;;
81242;SDS011;70716;50.074;14.496;2024-01-07T01:23:17;4.28;;;2.35;;
81242;SDS011;70716;50.074;14.496;2024-01-07T01:25:43;3.70;;;1.38;;
81242;SDS011;70716;50.074;14.496;2024-01-07T01:28:09;3.92;;;2.67;;
81242;SDS011;70716;50.074;14.496;2024-01-07T01:30:35;5.55;;;2.83;;
81242;SDS011;70716;50.074;14.496;2024-01-07T01:33:00;4.43;;;2.70;;
81242;SDS011;70716;50.074;14.496;2024-01-07T01:35:31;19.15;;;3.05;;
81242;SDS011;70716;50.074;14.496;2024-01-07T01:37:56;6.63;;;2.40;;
81242;SDS011;70716;50.074;14.496;2024-01-07T01:40:22;7.13;;;4.22;;
81242;SDS011;70716;50.074;14.496;2024-01-07T01:42:48;6.63;;;1.88;;
81242;SDS011;70716;50.074;14.496;2024-01-07T01:45:14;9.00;;;3.25;;
81242;SDS011;70716;50.074;14.496;2024-01-07T01:47:42;4.28;;;2.15;;
81242;SDS011;70716;50.074;14.496;2024-01-07T01:50:09;5.28;;;3.45;;
81242;SDS011;70716;50.074;14.496;2024-01-07T01:52:36;3.95;;;1.73;;
81242;SDS011;70716;50.074;14.496;2024-01-07T01:55:01;6.20;;;3.15;;
81242;SDS011;70716;50.074;14.496;2024-01-07T01:57:28;6.05;;;4.18;;
81242;SDS011;70716;50.074;14.496;2024-01-07T01:59:58;5.05;;;2.60;;
81242;SDS011;70716;50.074;14.496;2024-01-07T02:02:32;5.10;;;2.50;;
81242;SDS011;70716;50.074;14.496;2024-01-07T02:04:59;2.67;;;1.90;;
81242;SDS011;70716;50.074;14.496;2024-01-07T02:07:26;4.35;;;2.65;;
81242;SDS011;70716;50.074;14.496;2024-01-07T02:09:53;5.63;;;1.85;;
81242;SDS011;70716;50.074;14.496;2024-01-07T02:12:19;8.38;;;2.47;;
81242;SDS011;70716;50.074;14.496;2024-01-07T02:14:45;3.85;;;2.28;;
81242;SDS011;70716;50.074;14.496;2024-01-07T02:17:10;2.58;;;1.77;;
81242;SDS011;70716;50.074;14.496;2024-01-07T02:19:35;2.28;;;1.65;;
81242;SDS011;70716;50.074;14.496;2024-01-07T02:22:01;4.15;;;2.65;;
81242;SDS011;70716;50.074;14.496;2024-01-07T02:24:26;4.43;;;2.72;;
81242;SDS011;70716;50.074;14.496;2024-01-07T02:26:52;4.75;;;2.05;;
81242;SDS011;70716;50.074;14.496;2024-01-07T02:29:17;6.18;;;2.80;;
81242;SDS011;70716;50.074;14.496;2024-01-07T02:31:44;3.72;;;1.63;;
81242;SDS011;70716;50.074;14.496;2024-01-07T02:34:12;1.20;;;0.88;;
81242;SDS011;70716;50.074;14.496;2024-01-07T02:36:37;3.00;;;1.35;;
81242;SDS011;70716;50.074;14.496;2024-01-07T02:39:03;3.15;;;1.33;;
81242;SDS011;70716;50.074;14.496;2024-01-07T02:41:28;3.45;;;1.08;;
81242;SDS011;70716;50.074;14.496;2024-01-07T02:43:54;2.28;;;1.20;;
81242;SDS011;70716;50.074;14.496;2024-01-07T02:46:19;3.35;;;1.52;;
81242;SDS011;70716;50.074;14.496;2024-01-07T02:48:45;3.05;;;2.08;;
81242;SDS011;70716;50.074;14.496;2024-01-07T02:51:10;1.75;;;0.82;;
81242;SDS011;70716;50.074;14.496;2024-01-07T02:53:36;4.60;;;2.22;;
81242;SDS011;70716;50.074;14.496;2024-01-07T02:56:01;4.20;;;2.33;;
81242;SDS011;70716;50.074;14.496;2024-01-07T02:58:26;2.40;;;1.65;;
81242;SDS011;70716;50.074;14.496;2024-01-07T03:00:52;2.35;;;1.30;;
81242;SDS011;70716;50.074;14.496;2024-01-07T03:03:17;7.13;;;2.00;;
81242;SDS011;70716;50.074;14.496;2024-01-07T03:05:43;3.47;;;2.53;;
81242;SDS011;70716;50.074;14.496;2024-01-07T03:08:08;5.55;;;2.55;;
81242;SDS011;70716;50.074;14.496;2024-01-07T03:10:34;4.57;;;1.90;;
81242;SDS011;70716;50.074;14.496;2024-01-07T03:13:00;3.15;;;1.55;;
81242;SDS011;70716;50.074;14.496;2024-01-07T03:15:28;1.95;;;1.77;;
81242;SDS011;70716;50.074;14.496;2024-01-07T03:17:54;2.17;;;1.33;;
81242;SDS011;70716;50.074;14.496;2024-01-07T03:20:19;2.78;;;1.40;;
81242;SDS011;70716;50.074;14.496;2024-01-07T03:22:45;3.78;;;3.03;;
81242;SDS011;70716;50.074;14.496;2024-01-07T03:25:13;3.65;;;1.67;;
81242;SDS011;70716;50.074;14.496;2024-01-07T03:27:39;4.57;;;2.50;;
81242;SDS011;70716;50.074;14.496;2024-01-07T03:30:05;3.42;;;2.13;;
81242;SDS011;70716;50.074;14.496;2024-01-07T03:32:31;3.92;;;1.92;;
81242;SDS011;70716;50.074;14.496;2024-01-07T03:34:56;7.00;;;2.67;;
81242;SDS011;70716;50.074;14.496;2024-01-07T03:37:22;3.05;;;2.05;;
81242;SDS011;70716;50.074;14.496;2024-01-07T03:39:48;2.70;;;2.03;;
81242;SDS011;70716;50.074;14.496;2024-01-07T03:42:13;6.05;;;3.28;;
81242;SDS011;70716;50.074;14.496;2024-01-07T03:44:38;2.42;;;1.95;;
81242;SDS011;70716;50.074;14.496;2024-01-07T03:47:04;4.07;;;2.17;;
81242;SDS011;70716;50.074;14.496;2024-01-07T03:49:31;2.53;;;2.17;;
81242;SDS011;70716;50.074;14.496;2024-01-07T03:51:56;2.13;;;1.70;;
81242;SDS011;70716;50.074;14.496;2024-01-07T03:54:22;1.85;;;1.60;;
81242;SDS011;70716;50.074;14.496;2024-01-07T03:56:47;6.05;;;1.17;;
81242;SDS011;70716;50.074;14.496;2024-01-07T03:59:12;1.45;;;1.20;;
81242;SDS011;70716;50.074;14.496;2024-01-07T04:01:38;2.83;;;1.27;;
81242;SDS011;70716;50.074;14.496;2024-01-07T04:04:03;5.18;;;2.53;;
81242;SDS011;70716;50.074;14.496;2024-01-07T04:06:28;3.10;;;1.45;;
81242;SDS011;70716;50.074;14.496;2024-01-07T04:08:54;1.55;;;1.10;;
81242;SDS011;70716;50.074;14.496;2024-01-07T04:11:19;4.35;;;1.73;;
81242;SDS011;70716;50.074;14.496;2024-01-07T04:13:45;1.35;;;1.20;;
81242;SDS011;70716;50.074;14.496;2024-01-07T04:16:17;4.82;;;2.38;;
81242;SDS011;70716;50.074;14.496;2024-01-07T04:18:48;2.42;;;2.08;;
81242;SDS011;70716;50.074;14.496;2024-01-07T04:21:14;4.80;;;1.98;;
81242;SDS011;70716;50.074;14.496;2024-01-07T04:23:39;3.38;;;1.33;;
81242;SDS011;70716;50.074;14.496;2024-01-07T04:26:08;3.35;;;1.13;;
81242;SDS011;70716;50.074;14.496;2024-01-07T04:28:34;3.78;;;2.08;;
81242;SDS011;70716;50.074;14.496;2024-01-07T04:30:59;2.75;;;0.65;;
81242;SDS011;70716;50.074;14.496;2024-01-07T04:33:25;2.75;;;1.50;;
81242;SDS011;70716;50.074;14.496;2024-01-07T04:35:53;3.13;;;1.67;;
81242;SDS011;70716;50.074;14.496;2024-01-07T04:38:23;2.40;;;1.02;;
81242;SDS011;70716;50.074;14.496;2024-01-07T04:40:53;3.38;;;1.73;;
81242;SDS011;70716;50.074;14.496;2024-01-07T04:43:19;0.82;;;0.73;;
81242;SDS011;70716;50.074;14.496;2024-01-07T04:45:44;3.45;;;2.83;;
81242;SDS011;70716;50.074;14.496;2024-01-07T04:48:10;3.67;;;2.42;;
81242;SDS011;70716;50.074;14.496;2024-01-07T04:50:36;3.30;;;1.50;;
81242;SDS011;70716;50.074;14.496;2024-01-07T04:53:01;2.67;;;1.05;;
81242;SDS011;70716;50.074;14.496;2024-01-07T04:55:29;2.75;;;1.80;;
81242;SDS011;70716;50.074;14.496;2024-01-07T04:57:55;9.73;;;1.95;;
81242;SDS011;70716;50.074;14.496;2024-01-07T05:00:20;1.80;;;1.50;;
81242;SDS011;70716;50.074;14.496;2024-01-07T05:02:46;4.30;;;2.35;;
81242;SDS011;70716;50.074;14.496;2024-01-07T05:05:11;1.88;;;1.50;;
81242;SDS011;70716;50.074;14.496;2024-01-07T05:07:37;1.63;;;0.95;;
81242;SDS011;70716;50.074;14.496;2024-01-07T05:10:03;3.70;;;1.55;;
81242;SDS011;70716;50.074;14.496;2024-01-07T05:12:29;3.20;;;1.73;;
81242;SDS011;70716;50.074;14.496;2024-01-07T05:14:55;2.75;;;1.35;;
81242;SDS011;70716;50.074;14.496;2024-01-07T05:17:20;1.13;;;0.93;;
81242;SDS011;70716;50.074;14.496;2024-01-07T05:19:49;2.50;;;1.77;;
81242;SDS011;70716;50.074;14.496;2024-01-07T05:22:14;2.20;;;1.17;;
81242;SDS011;70716;50.074;14.496;2024-01-07T05:24:39;5.45;;;2.67;;
81242;SDS011;70716;50.074;14.496;2024-01-07T05:27:05;1.63;;;1.40;;
81242;SDS011;70716;50.074;14.496;2024-01-07T05:29:31;2.65;;;1.13;;
81242;SDS011;70716;50.074;14.496;2024-01-07T05:32:00;3.92;;;1.70;;
81242;SDS011;70716;50.074;14.496;2024-01-07T05:34:27;4.82;;;2.17;;
81242;SDS011;70716;50.074;14.496;2024-01-07T05:36:52;3.22;;;2.30;;
81242;SDS011;70716;50.074;14.496;2024-01-07T05:39:18;4.85;;;1.92;;
81242;SDS011;70716;50.074;14.496;2024-01-07T05:41:43;9.75;;;3.08;;
81242;SDS011;70716;50.074;14.496;2024-01-07T05:44:11;1.95;;;1.23;;
81242;SDS011;70716;50.074;14.496;2024-01-07T05:46:43;6.15;;;2.88;;
81242;SDS011;70716;50.074;14.496;2024-01-07T05:49:08;2.17;;;1.35;;
81242;SDS011;70716;50.074;14.496;2024-01-07T05:51:40;2.95;;;1.40;;
81242;SDS011;70716;50.074;14.496;2024-01-07T05:54:09;2.35;;;1.80;;
81242;SDS011;70716;50.074;14.496;2024-01-07T05:56:41;1.38;;;0.95;;
81242;SDS011;70716;50.074;14.496;2024-01-07T05:59:07;2.60;;;2.17;;
81242;SDS011;70716;50.074;14.496;2024-01-07T06:01:32;1.60;;;0.93;;
81242;SDS011;70716;50.074;14.496;2024-01-07T06:04:01;1.88;;;1.23;;
81242;SDS011;70716;50.074;14.496;2024-01-07T06:06:26;2.45;;;2.08;;
81242;SDS011;70716;50.074;14.496;2024-01-07T06:08:51;2.20;;;1.40;;
81242;SDS011;70716;50.074;14.496;2024-01-07T06:11:17;7.75;;;2.85;;
81242;SDS011;70716;50.074;14.496;2024-01-07T06:13:46;1.45;;;1.08;;
81242;SDS011;70716;50.074;14.496;2024-01-07T06:16:11;2.33;;;2.08;;
81242;SDS011;70716;50.074;14.496;2024-01-07T06:18:37;4.45;;;3.05;;
81242;SDS011;70716;50.074;14.496;2024-01-07T06:21:02;3.00;;;2.13;;
81242;SDS011;70716;50.074;14.496;2024-01-07T06:23:28;2.22;;;1.13;;
81242;SDS011;70716;50.074;14.496;2024-01-07T06:25:53;7.30;;;2.47;;
81242;SDS011;70716;50.074;14.496;2024-01-07T06:28:22;2.85;;;1.90;;
81242;SDS011;70716;50.074;14.496;2024-01-07T06:30:47;4.82;;;1.25;;
81242;SDS011;70716;50.074;14.496;2024-01-07T06:33:12;3.22;;;1.25;;
81242;SDS011;70716;50.074;14.496;2024-01-07T06:35:38;0.82;;;0.68;;
81242;SDS011;70716;50.074;14.496;2024-01-07T06:38:04;1.23;;;1.02;;
81242;SDS011;70716;50.074;14.496;2024-01-07T06:40:29;3.85;;;2.03;;
81242;SDS011;70716;50.074;14.496;2024-01-07T06:42:54;6.32;;;2.05;;
81242;SDS011;70716;50.074;14.496;2024-01-07T06:45:20;3.17;;;2.10;;
81242;SDS011;70716;50.074;14.496;2024-01-07T06:47:45;4.03;;;1.70;;
81242;SDS011;70716;50.074;14.496;2024-01-07T06:50:11;2.95;;;2.72;;
81242;SDS011;70716;50.074;14.496;2024-01-07T06:52:37;0.63;;;0.47;;
81242;SDS011;70716;50.074;14.496;2024-01-07T06:55:05;2.03;;;1.42;;
81242;SDS011;70716;50.074;14.496;2024-01-07T06:57:31;4.88;;;2.17;;
81242;SDS011;70716;50.074;14.496;2024-01-07T06:59:57;2.22;;;1.15;;
81242;SDS011;70716;50.074;14.496;2024-01-07T07:02:22;4.97;;;2.42;;
81242;SDS011;70716;50.074;14.496;2024-01-07T07:04:47;2.92;;;1.67;;
81242;SDS011;70716;50.074;14.496;2024-01-07T07:07:13;2.72;;;1.88;;
81242;SDS011;70716;50.074;14.496;2024-01-07T07:09:38;1.33;;;1.20;;
81242;SDS011;70716;50.074;14.496;2024-01-07T07:12:05;1.23;;;0.63;;
81242;SDS011;70716;50.074;14.496;2024-01-07T07:14:32;0.63;;;0.57;;
81242;SDS011;70716;50.074;14.496;2024-01-07T07:16:58;1.08;;;0.90;;
81242;SDS011;70716;50.074;14.496;2024-01-07T07:19:23;4.30;;;2.17;;
81242;SDS011;70716;50.074;14.496;2024-01-07T07:21:48;0.88;;;0.65;;
81242;SDS011;70716;50.074;14.496;2024-01-07T12:49:10;1.80;;;0.75;;
81242;SDS011;70716;50.074;14.496;2024-01-07T12:51:35;0.63;;;0.38;;
81242;SDS011;70716;50.074;14.496;2024-01-07T12:54:01;0.70;;;0.55;;
81242;SDS011;70716;50.074;14.496;2024-01-07T12:56:28;0.65;;;0.20;;
81242;SDS011;70716;50.074;14.496;2024-01-07T12:58:54;2.97;;;1.67;;
81242;SDS011;70716;50.074;14.496;2024-01-07T13:01:19;0.97;;;0.90;;
81242;SDS011;70716;50.074;14.496;2024-01-07T13:03:44;2.88;;;0.90;;
81242;SDS011;70716;50.074;14.496;2024-01-07T13:06:10;1.35;;;1.00;;
81242;SDS011;70716;50.074;14.496;2024-01-07T13:08:35;1.63;;;1.02;;
81242;SDS011;70716;50.074;14.496;2024-01-07T13:11:00;1.65;;;0.70;;
81242;SDS011;70716;50.074;14.496;2024-01-07T13:13:27;2.13;;;1.15;;
81242;SDS011;70716;50.074;14.496;2024-01-07T13:15:52;1.63;;;0.98;;
81242;SDS011;70716;50.074;14.496;2024-01-07T13:18:18;1.40;;;1.13;;
81242;SDS011;70716;50.074;14.496;2024-01-07T13:20:43;0.82;;;0.65;;
81242;SDS011;70716;50.074;14.496;2024-01-07T13:23:08;4.38;;;2.10;;
81242;SDS011;70716;50.074;14.496;2024-01-07T13:25:34;0.90;;;0.47;;
81242;SDS011;70716;50.074;14.496;2024-01-07T13:28:03;5.22;;;1.58;;
81242;SDS011;70716;50.074;14.496;2024-01-07T13:30:28;0.68;;;0.32;;
81242;SDS011;70716;50.074;14.496;2024-01-07T13:32:54;3.00;;;1.00;;
81242;SDS011;70716;50.074;14.496;2024-01-07T13:35:21;1.25;;;1.10;;
81242;SDS011;70716;50.074;14.496;2024-01-07T13:37:47;0.70;;;0.55;;
81242;SDS011;70716;50.074;14.496;2024-01-07T13:40:17;1.27;;;0.60;;
81242;SDS011;70716;50.074;14.496;2024-01-07T13:42:43;0.20;;;0.10;;
81242;SDS011;70716;50.074;14.496;2024-01-07T13:45:09;1.30;;;1.20;;
81242;SDS011;70716;50.074;14.496;2024-01-07T13:47:35;2.75;;;1.48;;
81242;SDS011;70716;50.074;14.496;2024-01-07T13:50:00;0.00;;;0.00;;
81242;SDS011;70716;50.074;14.496;2024-01-07T13:52:29;0.73;;;0.50;;
81242;SDS011;70716;50.074;14.496;2024-01-07T13:54:54;1.67;;;0.28;;
81242;SDS011;70716;50.074;14.496;2024-01-07T13:57:20;0.30;;;0.20;;
81242;SDS011;70716;50.074;14.496;2024-01-07T13:59:45;0.10;;;0.00;;
81242;SDS011;70716;50.074;14.496;2024-01-07T14:02:11;0.88;;;0.47;;
81242;SDS011;70716;50.074;14.496;2024-01-07T14:04:38;0.40;;;0.40;;
81242;SDS011;70716;50.074;14.496;2024-01-07T14:07:03;0.50;;;0.38;;
81242;SDS011;70716;50.074;14.496;2024-01-07T14:09:28;0.80;;;0.43;;
81242;SDS011;70716;50.074;14.496;2024-01-07T14:11:57;2.35;;;1.55;;
81242;SDS011;70716;50.074;14.496;2024-01-07T14:14:23;0.20;;;0.20;;
81242;SDS011;70716;50.074;14.496;2024-01-07T14:16:50;1.88;;;0.70;;
81242;SDS011;70716;50.074;14.496;2024-01-07T14:19:15;0.22;;;0.22;;
81242;SDS011;70716;50.074;14.496;2024-01-07T14:21:41;0.95;;;0.68;;
81242;SDS011;70716;50.074;14.496;2024-01-07T14:24:07;0.28;;;0.15;;
81242;SDS011;70716;50.074;14.496;2024-01-07T14:26:32;0.47;;;0.40;;
81242;SDS011;70716;50.074;14.496;2024-01-07T14:28:58;0.47;;;0.25;;
81242;SDS011;70716;50.074;14.496;2024-01-07T14:31:27;0.10;;;0.10;;
81242;SDS011;70716;50.074;14.496;2024-01-07T14:33:52;0.40;;;0.35;;
81242;SDS011;70716;50.074;14.496;2024-01-07T14:36:17;0.20;;;0.00;;
81242;SDS011;70716;50.074;14.496;2024-01-07T14:38:44;1.38;;;1.10;;
81242;SDS011;70716;50.074;14.496;2024-01-07T14:41:16;2.47;;;0.93;;
81242;SDS011;70716;50.074;14.496;2024-01-07T14:43:43;0.50;;;0.38;;
81242;SDS011;70716;50.074;14.496;2024-01-07T14:46:08;1.08;;;0.75;;
81242;SDS011;70716;50.074;14.496;2024-01-07T14:48:35;0.90;;;0.80;;
81242;SDS011;70716;50.074;14.496;2024-01-07T14:51:01;0.35;;;0.13;;
81242;SDS011;70716;50.074;14.496;2024-01-07T14:53:27;1.95;;;1.33;;
81242;SDS011;70716;50.074;14.496;2024-01-07T14:55:53;0.45;;;0.28;;
81242;SDS011;70716;50.074;14.496;2024-01-07T14:58:19;1.50;;;0.57;;
81242;SDS011;70716;50.074;14.496;2024-01-07T15:00:51;1.40;;;0.57;;
81242;SDS011;70716;50.074;14.496;2024-01-07T15:03:16;0.45;;;0.32;;
81242;SDS011;70716;50.074;14.496;2024-01-07T15:05:43;0.90;;;0.38;;
81242;SDS011;70716;50.074;14.496;2024-01-07T15:08:09;0.32;;;0.32;;
81242;SDS011;70716;50.074;14.496;2024-01-07T15:10:38;0.47;;;0.47;;
81242;SDS011;70716;50.074;14.496;2024-01-07T15:13:03;1.15;;;0.85;;
81242;SDS011;70716;50.074;14.496;2024-01-07T15:15:28;0.85;;;0.43;;
81242;SDS011;70716;50.074;14.496;2024-01-07T15:17:57;0.82;;;0.40;;
81242;SDS011;70716;50.074;14.496;2024-01-07T15:20:23;0.30;;;0.20;;
81242;SDS011;70716;50.074;14.496;2024-01-07T15:22:49;0.57;;;0.35;;
81242;SDS011;70716;50.074;14.496;2024-01-07T15:25:15;1.20;;;0.43;;
81242;SDS011;70716;50.074;14.496;2024-01-07T15:27:42;0.15;;;0.05;;
81242;SDS011;70716;50.074;14.496;2024-01-07T15:30:07;0.40;;;0.25;;
81242;SDS011;70716;50.074;14.496;2024-01-07T15:32:34;0.00;;;0.00;;
81242;SDS011;70716;50.074;14.496;2024-01-07T15:34:59;3.30;;;1.63;;
81242;SDS011;70716;50.074;14.496;2024-01-07T15:37:25;1.15;;;0.90;;
81242;SDS011;70716;50.074;14.496;2024-01-07T15:39:50;0.00;;;0.00;;
81242;SDS011;70716;50.074;14.496;2024-01-07T15:42:17;0.05;;;0.05;;
81242;SDS011;70716;50.074;14.496;2024-01-07T15:44:43;2.90;;;1.02;;
81242;SDS011;70716;50.074;14.496;2024-01-07T15:47:08;0.43;;;0.32;;
81242;SDS011;70716;50.074;14.496;2024-01-07T15:49:34;1.23;;;0.40;;
81242;SDS011;70716;50.074;14.496;2024-01-07T15:52:00;0.68;;;0.47;;
81242;SDS011;70716;50.074;14.496;2024-01-07T15:54:25;2.90;;;1.20;;
81242;SDS011;70716;50.074;14.496;2024-01-07T15:56:51;0.63;;;0.40;;
81242;SDS011;70716;50.074;14.496;2024-01-07T15:59:16;0.05;;;0.03;;
81242;SDS011;70716;50.074;14.496;2024-01-07T16:01:46;0.43;;;0.22;;
81242;SDS011;70716;50.074;14.496;2024-01-07T16:04:12;0.30;;;0.10;;
81242;SDS011;70716;50.074;14.496;2024-01-07T16:06:40;1.40;;;0.28;;
81242;SDS011;70716;50.074;14.496;2024-01-07T16:09:06;0.28;;;0.15;;
81242;SDS011;70716;50.074;14.496;2024-01-07T16:11:36;0.52;;;0.40;;
81242;SDS011;70716;50.074;14.496;2024-01-07T16:14:01;0.13;;;0.10;;
81242;SDS011;70716;50.074;14.496;2024-01-07T16:16:26;0.00;;;0.00;;
81242;SDS011;70716;50.074;14.496;2024-01-07T16:18:53;0.15;;;0.10;;
81242;SDS011;70716;50.074;14.496;2024-01-07T16:21:19;0.22;;;0.15;;
81242;SDS011;70716;50.074;14.496;2024-01-07T16:23:46;0.65;;;0.13;;
81242;SDS011;70716;50.074;14.496;2024-01-07T16:26:15;0.65;;;0.55;;
81242;SDS011;70716;50.074;14.496;2024-01-07T16:28:40;1.15;;;0.98;;
81242;SDS011;70716;50.074;14.496;2024-01-07T16:31:09;0.00;;;0.00;;
81242;SDS011;70716;50.074;14.496;2024-01-07T16:33:37;2.05;;;0.95;;
81242;SDS011;70716;50.074;14.496;2024-01-07T16:36:06;0.75;;;0.50;;
81242;SDS011;70716;50.074;14.496;2024-01-07T16:38:32;0.63;;;0.25;;
81242;SDS011;70716;50.074;14.496;2024-01-07T16:41:00;1.67;;;0.73;;
81242;SDS011;70716;50.074;14.496;2024-01-07T16:43:29;1.75;;;1.00;;
81242;SDS011;70716;50.074;14.496;2024-01-07T16:45:56;0.30;;;0.20;;
81242;SDS011;70716;50.074;14.496;2024-01-07T16:48:22;1.13;;;0.40;;
81242;SDS011;70716;50.074;14.496;2024-01-07T16:50:47;0.38;;;0.35;;
81242;SDS011;70716;50.074;14.496;2024-01-07T16:53:15;0.50;;;0.40;;
81242;SDS011;70716;50.074;14.496;2024-01-07T16:55:42;0.38;;;0.35;;
81242;SDS011;70716;50.074;14.496;2024-01-07T16:58:09;2.63;;;1.58;;
81242;SDS011;70716;50.074;14.496;2024-01-07T17:00:35;2.53;;;1.30;;
81242;SDS011;70716;50.074;14.496;2024-01-07T17:03:00;2.42;;;0.98;;
81242;SDS011;70716;50.074;14.496;2024-01-07T17:05:25;2.63;;;0.17;;
81242;SDS011;70716;50.074;14.496;2024-01-07T17:07:51;0.73;;;0.47;;
81242;SDS011;70716;50.074;14.496;2024-01-07T17:10:16;2.30;;;0.95;;
81242;SDS011;70716;50.074;14.496;2024-01-07T17:12:41;3.33;;;0.93;;
81242;SDS011;70716;50.074;14.496;2024-01-07T17:15:07;0.00;;;0.00;;
81242;SDS011;70716;50.074;14.496;2024-01-07T17:17:33;0.93;;;0.45;;
81242;SDS011;70716;50.074;14.496;2024-01-07T17:19:58;0.73;;;0.47;;
81242;SDS011;70716;50.074;14.496;2024-01-07T17:22:23;1.10;;;0.55;;
81242;SDS011;70716;50.074;14.496;2024-01-07T17:24:52;0.10;;;0.05;;
81242;SDS011;70716;50.074;14.496;2024-01-07T17:27:17;0.55;;;0.38;;
81242;SDS011;70716;50.074;14.496;2024-01-07T17:29:42;0.95;;;0.60;;
81242;SDS011;70716;50.074;14.496;2024-01-07T17:32:08;3.45;;;0.75;;
81242;SDS011;70716;50.074;14.496;2024-01-07T17:34:39;0.47;;;0.43;;
81242;SDS011;70716;50.074;14.496;2024-01-07T17:37:05;1.33;;;0.93;;
81242;SDS011;70716;50.074;14.496;2024-01-07T17:39:30;3.42;;;1.50;;
81242;SDS011;70716;50.074;14.496;2024-01-07T17:41:58;0.20;;;0.20;;
81242;SDS011;70716;50.074;14.496;2024-01-07T17:44:24;1.25;;;0.82;;
81242;SDS011;70716;50.074;14.496;2024-01-07T17:46:50;2.85;;;1.13;;
81242;SDS011;70716;50.074;14.496;2024-01-07T17:49:15;0.63;;;0.50;;
81242;SDS011;70716;50.074;14.496;2024-01-07T17:51:41;2.03;;;1.08;;
81242;SDS011;70716;50.074;14.496;2024-01-07T17:54:09;0.38;;;0.20;;
81242;SDS011;70716;50.074;14.496;2024-01-07T17:56:37;1.88;;;1.17;;
81242;SDS011;70716;50.074;14.496;2024-01-07T17:59:02;2.15;;;1.58;;
81242;SDS011;70716;50.074;14.496;2024-01-07T18:01:28;9.23;;;0.80;;
81242;SDS011;70716;50.074;14.496;2024-01-07T18:03:54;1.00;;;0.43;;
81242;SDS011;70716;50.074;14.496;2024-01-07T18:06:20;1.98;;;1.35;;
81242;SDS011;70716;50.074;14.496;2024-01-07T18:08:45;1.88;;;1.15;;
81242;SDS011;70716;50.074;14.496;2024-01-07T18:11:10;1.92;;;1.05;;
81242;SDS011;70716;50.074;14.496;2024-01-07T18:13:36;0.95;;;0.90;;
81242;SDS011;70716;50.074;14.496;2024-01-07T18:16:04;0.47;;;0.38;;
81242;SDS011;70716;50.074;14.496;2024-01-07T18:20:57;0.97;;;0.83;;
81242;SDS011;70716;50.074;14.496;2024-01-07T18:23:22;0.00;;;0.00;;
81242;SDS011;70716;50.074;14.496;2024-01-07T18:25:48;1.55;;;0.32;;
81242;SDS011;70716;50.074;14.496;2024-01-07T18:28:14;2.35;;;1.25;;
81242;SDS011;70716;50.074;14.496;2024-01-07T18:30:40;2.35;;;0.75;;
81242;SDS011;70716;50.074;14.496;2024-01-07T18:33:07;2.47;;;2.28;;
81242;SDS011;70716;50.074;14.496;2024-01-07T18:35:32;2.38;;;0.85;;
81242;SDS011;70716;50.074;14.496;2024-01-07T18:37:59;0.20;;;0.20;;
81242;SDS011;70716;50.074;14.496;2024-01-07T18:40:24;2.60;;;0.90;;
81242;SDS011;70716;50.074;14.496;2024-01-07T18:42:50;1.60;;;0.98;;
81242;SDS011;70716;50.074;14.496;2024-01-07T18:45:16;3.17;;;0.73;;
81242;SDS011;70716;50.074;14.496;2024-01-07T18:47:42;0.93;;;0.40;;
81242;SDS011;70716;50.074;14.496;2024-01-07T18:50:08;2.72;;;0.85;;
81242;SDS011;70716;50.074;14.496;2024-01-07T18:52:34;2.70;;;1.48;;
81242;SDS011;70716;50.074;14.496;2024-01-07T18:54:59;1.02;;;0.98;;
81242;SDS011;70716;50.074;14.496;2024-01-07T18:57:27;0.40;;;0.35;;
81242;SDS011;70716;50.074;14.496;2024-01-07T18:59:53;2.30;;;1.70;;
81242;SDS011;70716;50.074;14.496;2024-01-07T19:02:19;0.90;;;0.30;;
81242;SDS011;70716;50.074;14.496;2024-01-07T19:04:45;0.30;;;0.30;;
81242;SDS011;70716;50.074;14.496;2024-01-07T19:07:11;0.15;;;0.13;;
81242;SDS011;70716;50.074;14.496;2024-01-07T19:09:37;1.00;;;1.00;;
81242;SDS011;70716;50.074;14.496;2024-01-07T19:12:05;0.20;;;0.20;;
81242;SDS011;70716;50.074;14.496;2024-01-07T19:14:36;0.60;;;0.45;;
81242;SDS011;70716;50.074;14.496;2024-01-07T19:17:02;0.15;;;0.15;;
81242;SDS011;70716;50.074;14.496;2024-01-07T19:19:31;0.20;;;0.20;;
81242;SDS011;70716;50.074;14.496;2024-01-07T19:21:56;1.55;;;0.88;;
81242;SDS011;70716;50.074;14.496;2024-01-07T19:24:21;0.10;;;0.05;;
81242;SDS011;70716;50.074;14.496;2024-01-07T19:26:48;0.40;;;0.35;;
81242;SDS011;70716;50.074;14.496;2024-01-07T19:29:14;0.80;;;0.52;;
81242;SDS011;70716;50.074;14.496;2024-01-07T19:31:39;1.02;;;0.75;;
81242;SDS011;70716;50.074;14.496;2024-01-07T19:34:05;0.10;;;0.10;;
81242;SDS011;70716;50.074;14.496;2024-01-07T19:36:30;1.48;;;1.38;;
81242;SDS011;70716;50.074;14.496;2024-01-07T19:38:57;1.02;;;0.20;;
81242;SDS011;70716;50.074;14.496;2024-01-07T19:41:30;1.30;;;0.75;;
81242;SDS011;70716;50.074;14.496;2024-01-07T19:44:00;0.75;;;0.47;;
81242;SDS011;70716;50.074;14.496;2024-01-07T19:46:27;0.03;;;0.00;;
81242;SDS011;70716;50.074;14.496;2024-01-07T19:48:58;0.95;;;0.50;;
81242;SDS011;70716;50.074;14.496;2024-01-07T19:51:26;0.82;;;0.63;;
81242;SDS011;70716;50.074;14.496;2024-01-07T19:53:53;0.00;;;0.00;;